Time;durP1;ratioP1;P1;durP2;ratioP2;P2;SDS_P1;SDS_P2;PMS_P1;PMS_P2;Temp;Humidity;BMP_temperature;BMP_pressure;BME280_temperature;BME280_humidity;BME280_pressure;Samples;Min_cycle;Max_cycle;Signal;HPM_P1;HPM_P2
2021/10/01 00:01:50;;;;;;;2.70;1.33;;;14.60;99.90;;;;;;6235747;23;20191;-93
2021/10/01 00:04:25;;;;;;;1.20;1.10;;;14.60;99.90;;;;;;6238698;23;20172;-93
2021/10/01 00:06:57;;;;;;;2.00;1.17;;;14.60;99.90;;;;;;6210768;23;20207;-94
2021/10/01 00:09:34;;;;;;;3.03;1.57;;;14.50;99.90;;;;;;6232129;23;20742;-95
2021/10/01 00:12:07;;;;;;;2.73;1.37;;;14.50;99.90;;;;;;6221011;23;20184;-95
2021/10/01 00:14:40;;;;;;;3.57;1.40;;;14.40;99.90;;;;;;6221045;23;20177;-96
2021/10/01 00:20:00;;;;;;;3.30;1.83;;;14.50;99.90;;;;;;6225024;23;20185;-94
2021/10/01 00:22:31;;;;;;;2.47;1.30;;;14.40;99.90;;;;;;6221327;23;20196;-94
2021/10/01 00:25:02;;;;;;;3.23;1.40;;;14.40;99.90;;;;;;6221505;23;20729;-95
2021/10/01 00:27:34;;;;;;;2.67;1.43;;;14.10;99.90;;;;;;6223052;23;20180;-95
2021/10/01 00:30:06;;;;;;;2.10;1.40;;;14.00;99.90;;;;;;6222775;23;20226;-94
2021/10/01 00:32:37;;;;;;;3.53;1.20;;;14.10;99.90;;;;;;6222735;23;20223;-94
2021/10/01 00:35:12;;;;;;;3.07;1.30;;;14.10;99.90;;;;;;6219840;23;20176;-94
2021/10/01 00:37:44;;;;;;;2.43;1.40;;;14.20;99.90;;;;;;6221755;23;20215;-93
2021/10/01 00:40:16;;;;;;;4.17;1.40;;;14.20;99.90;;;;;;6224997;23;20199;-94
2021/10/01 00:42:47;;;;;;;2.47;1.37;;;14.20;99.90;;;;;;6227426;23;20192;-93
2021/10/01 00:45:18;;;;;;;2.67;1.63;;;14.20;99.90;;;;;;6220033;23;20176;-93
2021/10/01 00:47:49;;;;;;;2.57;1.33;;;14.10;99.90;;;;;;6221483;23;20248;-93
2021/10/01 00:50:23;;;;;;;2.30;1.20;;;14.10;99.90;;;;;;6222148;23;20168;-93
2021/10/01 00:52:55;;;;;;;3.07;1.20;;;14.20;99.90;;;;;;6231314;23;20196;-93
2021/10/01 00:55:27;;;;;;;2.47;1.40;;;14.20;99.90;;;;;;6222311;23;20180;-93
2021/10/01 00:57:58;;;;;;;3.87;1.43;;;14.20;99.90;;;;;;6225187;23;20188;-93
2021/10/01 01:00:30;;;;;;;2.03;1.40;;;14.10;99.90;;;;;;6224399;23;20192;-93
2021/10/01 01:03:06;;;;;;;3.07;1.30;;;14.10;99.90;;;;;;6231939;23;20219;-92
2021/10/01 01:05:56;;;;;;;2.23;1.70;;;14.10;99.90;;;;;;6238278;23;20180;-94
2021/10/01 01:08:42;;;;;;;2.43;1.40;;;14.00;99.90;;;;;;6231529;23;20207;-93
2021/10/01 01:11:25;;;;;;;2.27;1.40;;;14.00;99.90;;;;;;6235806;23;20618;-93
2021/10/01 01:14:04;;;;;;;1.63;1.50;;;13.90;99.90;;;;;;6236494;23;20168;-93
2021/10/01 01:16:37;;;;;;;4.50;2.53;;;13.90;99.90;;;;;;6242692;23;20175;-93
2021/10/01 01:19:14;;;;;;;2.30;1.73;;;13.90;99.90;;;;;;6240432;23;20165;-93
2021/10/01 01:21:57;;;;;;;2.83;2.10;;;13.70;99.90;;;;;;6225229;23;20176;-93
2021/10/01 01:24:49;;;;;;;2.23;2.03;;;13.70;99.90;;;;;;6222749;23;21024;-93
2021/10/01 01:27:35;;;;;;;3.17;1.93;;;13.70;99.90;;;;;;6224837;23;20176;-93
2021/10/01 01:30:13;;;;;;;3.83;1.60;;;13.70;99.90;;;;;;6230581;23;20177;-93
2021/10/01 01:32:50;;;;;;;2.10;1.50;;;13.60;99.90;;;;;;6237373;23;20203;-94
2021/10/01 01:35:26;;;;;;;4.53;2.03;;;13.60;99.90;;;;;;6236922;23;20184;-95
2021/10/01 01:38:03;;;;;;;3.03;1.90;;;13.60;99.90;;;;;;6227699;23;20606;-94
2021/10/01 01:40:37;;;;;;;3.03;1.70;;;13.60;99.90;;;;;;6234784;23;20177;-95
2021/10/01 01:43:15;;;;;;;3.60;1.60;;;13.60;99.90;;;;;;6241636;23;20188;-95
2021/10/01 01:45:49;;;;;;;2.93;1.57;;;13.60;99.90;;;;;;6241067;23;20199;-96
2021/10/01 01:48:24;;;;;;;3.53;1.73;;;13.60;99.90;;;;;;6243709;23;20234;-93
2021/10/01 01:53:33;;;;;;;1.97;1.70;;;13.60;99.90;;;;;;6244664;23;20216;-95
2021/10/01 01:56:07;;;;;;;3.17;1.63;;;13.60;99.90;;;;;;6242190;23;20187;-94
2021/10/01 01:58:40;;;;;;;1.63;1.30;;;13.60;99.90;;;;;;6224921;23;20180;-95
2021/10/01 02:01:14;;;;;;;2.00;1.20;;;13.60;99.90;;;;;;6225344;23;20173;-95
2021/10/01 02:03:50;;;;;;;2.83;1.37;;;13.60;99.90;;;;;;6224897;23;20310;-95
2021/10/01 02:06:21;;;;;;;5.00;1.30;;;13.60;99.90;;;;;;6226042;23;20176;-94
2021/10/01 02:08:56;;;;;;;2.03;1.47;;;13.50;99.90;;;;;;6268170;22;20297;-94
2021/10/01 02:11:32;;;;;;;4.20;1.80;;;13.50;99.90;;;;;;6292234;22;20198;-94
2021/10/01 02:14:07;;;;;;;1.73;1.50;;;13.50;99.90;;;;;;6297591;22;20166;-93
2021/10/01 02:16:41;;;;;;;5.27;1.53;;;13.50;99.90;;;;;;6295081;22;20177;-93
2021/10/01 02:19:20;;;;;;;5.57;1.93;;;13.50;99.90;;;;;;6296456;22;20174;-94
2021/10/01 02:21:54;;;;;;;2.73;1.60;;;13.50;99.90;;;;;;6302586;22;20178;-94
2021/10/01 02:24:28;;;;;;;3.83;2.30;;;13.50;99.90;;;;;;6301717;22;20900;-93
2021/10/01 02:27:18;;;;;;;3.73;2.50;;;13.50;99.90;;;;;;6302176;22;20234;-93
2021/10/01 02:29:58;;;;;;;4.40;2.37;;;13.60;99.90;;;;;;6302131;22;20186;-93
2021/10/01 02:32:34;;;;;;;3.20;2.03;;;13.50;99.90;;;;;;6296467;22;20174;-94
2021/10/01 02:35:11;;;;;;;4.00;2.83;;;13.50;99.90;;;;;;6297333;22;20198;-94
2021/10/01 02:37:43;;;;;;;5.30;3.47;;;13.50;99.90;;;;;;6297242;22;20179;-94
2021/10/01 02:40:15;;;;;;;6.03;3.70;;;13.50;99.90;;;;;;6270645;22;20174;-95
2021/10/01 02:42:47;;;;;;;6.70;4.17;;;13.50;99.90;;;;;;6290840;22;20171;-94
2021/10/01 02:45:18;;;;;;;6.53;4.43;;;13.50;99.90;;;;;;6295124;22;20191;-96
2021/10/01 02:47:53;;;;;;;7.17;3.90;;;13.50;99.90;;;;;;6300837;22;20273;-95
2021/10/01 02:50:27;;;;;;;5.07;2.57;;;13.50;99.90;;;;;;6303999;22;20170;-95
2021/10/01 02:53:06;;;;;;;4.27;2.70;;;13.50;99.90;;;;;;6305120;22;20158;-92
2021/10/01 02:58:26;;;;;;;3.67;2.40;;;13.40;99.90;;;;;;6301259;22;20190;-95
2021/10/01 03:00:59;;;;;;;2.73;1.80;;;13.40;99.90;;;;;;6276810;22;20200;-95
2021/10/01 03:03:41;;;;;;;3.07;1.97;;;13.40;99.90;;;;;;6302701;22;20194;-95
2021/10/01 03:06:20;;;;;;;4.93;1.63;;;13.40;99.90;;;;;;6297090;22;20174;-96
2021/10/01 03:08:54;;;;;;;6.37;2.00;;;13.40;99.90;;;;;;6274505;22;20163;-94
2021/10/01 03:11:28;;;;;;;3.57;2.20;;;13.40;99.90;;;;;;6291173;22;20175;-94
2021/10/01 03:14:07;;;;;;;3.03;1.70;;;13.30;99.90;;;;;;6289266;22;20235;-94
2021/10/01 03:16:44;;;;;;;3.87;2.10;;;13.20;99.90;;;;;;6297031;22;20175;-94
2021/10/01 03:19:19;;;;;;;6.57;2.43;;;13.10;99.90;;;;;;6287979;22;20175;-94
2021/10/01 03:21:55;;;;;;;5.53;2.37;;;13.20;99.90;;;;;;6271077;22;20202;-94
2021/10/01 03:24:27;;;;;;;3.37;1.97;;;13.20;99.90;;;;;;6296445;22;20205;-94
2021/10/01 03:29:39;;;;;;;4.90;2.40;;;13.20;99.90;;;;;;6231103;22;20207;-93
2021/10/01 03:54:22;;;;;;;4.83;2.30;;;13.20;99.90;;;;;;6242390;23;20156;-96
2021/10/01 04:15:26;;;;;;;2.53;2.00;;;13.10;99.90;;;;;;6202323;23;20203;-96
2021/10/01 04:17:59;;;;;;;3.97;2.20;;;13.20;99.90;;;;;;6201191;23;20183;-95
2021/10/01 04:20:40;;;;;;;2.63;2.17;;;13.20;99.90;;;;;;6201554;23;20275;-95
2021/10/01 04:23:12;;;;;;;3.67;2.17;;;13.10;99.90;;;;;;6203590;23;20177;-95
2021/10/01 04:25:45;;;;;;;3.23;2.37;;;13.10;99.90;;;;;;6200200;23;20262;-94
2021/10/01 04:28:19;;;;;;;3.33;2.20;;;13.10;99.90;;;;;;6199992;22;20225;-94
2021/10/01 04:31:11;;;;;;;5.27;2.40;;;13.10;99.90;;;;;;6203526;23;20181;-93
2021/10/01 04:33:44;;;;;;;6.00;3.00;;;13.00;99.90;;;;;;6192315;23;20177;-96
2021/10/01 04:36:19;;;;;;;4.03;2.60;;;13.00;99.90;;;;;;6196571;23;20185;-95
2021/10/01 04:38:51;;;;;;;4.43;2.60;;;13.00;99.90;;;;;;6197061;23;20169;-93
2021/10/01 04:41:27;;;;;;;8.37;3.67;;;13.00;99.90;;;;;;6158396;23;20204;-94
2021/10/01 04:44:02;;;;;;;5.53;2.47;;;13.00;99.90;;;;;;6197865;23;20655;-94
2021/10/01 04:46:39;;;;;;;5.03;2.70;;;13.00;99.90;;;;;;6201418;23;20176;-95
2021/10/01 04:49:17;;;;;;;6.27;2.50;;;13.00;99.90;;;;;;6181386;23;20206;-92
2021/10/01 04:51:52;;;;;;;4.40;2.80;;;12.90;99.90;;;;;;6195399;23;20231;-95
2021/10/01 04:54:30;;;;;;;6.60;2.33;;;12.90;99.90;;;;;;6170097;23;20183;-95
2021/10/01 04:57:07;;;;;;;5.77;2.40;;;12.90;99.90;;;;;;6198669;23;20244;-95
2021/10/01 04:59:42;;;;;;;4.73;2.43;;;12.90;99.90;;;;;;6198092;23;20164;-95
2021/10/01 05:02:17;;;;;;;4.87;2.50;;;12.90;99.90;;;;;;6200244;23;20204;-95
2021/10/01 05:04:54;;;;;;;5.70;2.57;;;12.90;99.90;;;;;;6199058;23;20200;-95
2021/10/01 05:07:27;;;;;;;2.77;2.23;;;12.90;99.90;;;;;;6202510;23;20310;-95
2021/10/01 05:10:02;;;;;;;3.30;1.80;;;12.90;99.90;;;;;;6195609;23;20177;-95
2021/10/01 05:12:34;;;;;;;6.90;2.37;;;12.90;99.90;;;;;;6195003;23;20215;-95
2021/10/01 05:15:11;;;;;;;5.60;2.40;;;12.80;99.90;;;;;;6195608;23;20177;-95
2021/10/01 05:17:44;;;;;;;6.33;2.53;;;12.80;99.90;;;;;;6193161;23;20176;-94
2021/10/01 05:20:16;;;;;;;2.77;1.90;;;12.90;99.90;;;;;;6193408;23;20599;-94
2021/10/01 05:22:49;;;;;;;5.23;2.10;;;12.80;99.90;;;;;;6198357;23;20177;-94
2021/10/01 05:25:21;;;;;;;5.63;2.60;;;12.90;99.90;;;;;;6194955;23;20200;-94
2021/10/01 05:27:54;;;;;;;3.10;2.20;;;12.80;99.90;;;;;;6200252;23;20170;-94
2021/10/01 05:30:25;;;;;;;2.80;2.40;;;12.90;99.90;;;;;;6167580;23;20199;-93
2021/10/01 05:33:05;;;;;;;5.00;2.20;;;12.90;99.90;;;;;;6195329;23;20204;-94
2021/10/01 05:35:41;;;;;;;4.83;2.33;;;12.80;99.90;;;;;;6193923;23;20184;-94
2021/10/01 05:38:17;;;;;;;4.03;2.30;;;12.90;99.90;;;;;;6194383;23;20188;-94
2021/10/01 05:40:49;;;;;;;5.13;2.30;;;12.90;99.90;;;;;;6194727;23;20171;-94
2021/10/01 05:43:24;;;;;;;6.67;2.23;;;12.90;99.90;;;;;;6172163;23;20176;-95
2021/10/01 05:45:58;;;;;;;3.27;2.63;;;12.90;99.90;;;;;;6180350;23;20215;-94
2021/10/01 05:48:34;;;;;;;4.87;2.50;;;12.90;99.90;;;;;;6188657;23;20157;-95
2021/10/01 05:51:08;;;;;;;4.47;2.43;;;12.90;99.90;;;;;;6213038;23;20157;-95
2021/10/01 05:56:23;;;;;;;5.73;2.23;;;12.90;99.90;;;;;;6228261;22;20219;-95
2021/10/01 05:58:55;;;;;;;4.03;2.43;;;12.90;99.90;;;;;;6231885;23;20173;-95
2021/10/01 06:01:29;;;;;;;4.97;2.70;;;12.80;99.90;;;;;;6239116;23;20160;-94
2021/10/01 06:04:23;;;;;;;5.30;2.50;;;12.80;99.90;;;;;;6239760;23;20180;-95
2021/10/01 06:06:56;;;;;;;7.53;2.77;;;12.80;99.90;;;;;;6239468;23;20204;-96
2021/10/01 06:09:31;;;;;;;7.20;3.13;;;12.70;99.90;;;;;;6234352;23;20183;-96
2021/10/01 06:12:04;;;;;;;3.47;2.80;;;12.70;99.90;;;;;;6229482;23;20179;-95
2021/10/01 06:14:38;;;;;;;4.17;2.97;;;12.60;99.90;;;;;;6236033;23;20174;-95
2021/10/01 06:17:15;;;;;;;5.33;4.10;;;12.60;99.90;;;;;;6223911;22;20215;-95
2021/10/01 06:19:50;;;;;;;4.07;3.43;;;12.60;99.90;;;;;;6237813;23;20177;-95
2021/10/01 06:22:22;;;;;;;5.73;4.10;;;12.50;99.90;;;;;;6221497;23;20176;-95
2021/10/01 06:24:53;;;;;;;6.30;3.97;;;12.40;99.90;;;;;;6223318;23;20551;-93
2021/10/01 06:27:24;;;;;;;8.33;4.17;;;12.40;99.90;;;;;;6224236;23;20180;-95
2021/10/01 06:29:58;;;;;;;7.13;4.40;;;12.30;99.90;;;;;;6224411;23;20192;-95
2021/10/01 06:32:35;;;;;;;9.27;4.70;;;12.20;99.90;;;;;;6222243;23;20204;-93
2021/10/01 06:35:11;;;;;;;6.37;4.37;;;12.10;99.90;;;;;;6224752;23;20195;-92
2021/10/01 06:37:43;;;;;;;4.97;4.43;;;12.00;99.90;;;;;;6222898;22;20208;-94
2021/10/01 06:40:16;;;;;;;6.87;4.60;;;11.90;99.90;;;;;;6225850;23;20180;-95
2021/10/01 06:42:51;;;;;;;11.57;4.53;;;11.90;99.90;;;;;;6223540;23;20557;-96
2021/10/01 06:45:25;;;;;;;6.77;4.23;;;11.80;99.90;;;;;;6223514;23;20216;-95
2021/10/01 06:48:10;;;;;;;9.00;4.53;;;11.70;99.90;;;;;;6226399;22;20216;-95
2021/10/01 06:51:13;;;;;;;4.47;3.57;;;11.70;99.90;;;;;;6223711;23;20229;-94
2021/10/01 08:18:41;;;;;;;5.33;3.80;;;11.20;99.90;;;;;;6283179;22;20171;-93
2021/10/01 08:21:14;;;;;;;4.63;3.80;;;11.30;99.90;;;;;;6283873;22;20227;-93
2021/10/01 08:23:46;;;;;;;4.20;3.70;;;11.30;99.90;;;;;;6283821;22;20484;-93
2021/10/01 08:26:18;;;;;;;5.37;3.87;;;11.30;99.90;;;;;;6281223;22;20206;-93
2021/10/01 08:28:50;;;;;;;5.03;3.60;;;11.30;99.90;;;;;;6286609;22;20500;-94
2021/10/01 08:31:28;;;;;;;6.33;3.80;;;11.40;99.90;;;;;;6282220;22;20232;-94
2021/10/01 08:34:00;;;;;;;6.70;4.23;;;11.40;99.90;;;;;;6280924;22;20171;-94
2021/10/01 08:36:32;;;;;;;6.97;4.10;;;11.40;99.90;;;;;;6282795;22;20655;-94
2021/10/01 08:39:05;;;;;;;4.67;3.60;;;11.40;99.90;;;;;;6282011;22;20234;-94
2021/10/01 08:41:40;;;;;;;7.13;3.90;;;11.40;99.90;;;;;;6281307;22;20177;-93
2021/10/01 08:44:14;;;;;;;5.23;3.80;;;11.40;99.90;;;;;;6281668;22;20182;-94
2021/10/01 08:46:50;;;;;;;5.20;3.00;;;11.40;99.90;;;;;;6280691;22;20199;-94
2021/10/01 08:49:27;;;;;;;5.73;3.67;;;11.40;99.90;;;;;;6287884;22;20229;-94
2021/10/01 08:51:59;;;;;;;4.67;2.80;;;11.40;99.90;;;;;;6296198;22;20215;-94
2021/10/01 08:54:34;;;;;;;5.30;3.20;;;11.40;99.90;;;;;;6295607;22;20194;-94
2021/10/01 08:57:07;;;;;;;2.97;2.67;;;11.30;99.90;;;;;;6290083;22;20185;-93
2021/10/01 09:02:43;;;;;;;8.70;3.63;;;11.30;99.90;;;;;;6289377;22;20199;-93
2021/10/01 09:05:16;;;;;;;5.77;3.90;;;11.40;99.90;;;;;;6281704;22;20171;-93
2021/10/01 09:07:47;;;;;;;4.93;4.07;;;11.40;99.90;;;;;;6281843;22;20270;-94
2021/10/01 09:10:19;;;;;;;6.73;4.13;;;11.50;99.90;;;;;;6280973;22;20175;-94
2021/10/01 09:12:53;;;;;;;4.20;3.80;;;11.50;99.90;;;;;;6282315;22;20198;-93
2021/10/01 09:15:26;;;;;;;5.57;3.93;;;11.50;99.90;;;;;;6278131;22;20182;-93
2021/10/01 09:18:02;;;;;;;5.83;3.60;;;11.60;99.90;;;;;;6281302;22;20179;-93
2021/10/01 09:20:34;;;;;;;5.17;3.63;;;11.60;99.90;;;;;;6280766;22;20236;-93
2021/10/01 09:23:17;;;;;;;4.30;3.90;;;11.60;99.90;;;;;;6281881;22;20187;-93
2021/10/01 09:25:48;;;;;;;3.43;2.97;;;11.60;99.90;;;;;;6280681;22;20178;-93
2021/10/01 09:28:20;;;;;;;3.37;2.97;;;11.60;99.90;;;;;;6282285;22;20167;-94
2021/10/01 09:30:52;;;;;;;3.50;3.10;;;11.70;99.90;;;;;;6283347;22;20167;-92
2021/10/01 09:33:25;;;;;;;4.50;3.10;;;11.70;99.90;;;;;;6291068;22;20199;-93
2021/10/01 09:36:10;;;;;;;3.67;3.23;;;11.70;99.90;;;;;;6299545;22;20197;-91
2021/10/01 09:38:41;;;;;;;5.67;2.90;;;11.70;99.90;;;;;;6302285;22;20167;-93
2021/10/01 09:41:22;;;;;;;4.40;3.20;;;11.70;99.90;;;;;;6300711;22;20178;-94
2021/10/01 09:44:07;;;;;;;3.43;3.13;;;11.70;99.90;;;;;;6294571;22;20167;-94
2021/10/01 09:46:41;;;;;;;4.53;3.00;;;11.70;99.90;;;;;;6292990;22;20206;-94
2021/10/01 09:49:17;;;;;;;3.77;3.03;;;11.70;99.90;;;;;;6287058;22;20603;-94
2021/10/01 09:51:57;;;;;;;4.43;2.73;;;11.60;99.90;;;;;;6286176;22;20628;-94
2021/10/01 09:54:32;;;;;;;3.20;2.90;;;11.60;99.90;;;;;;6285359;22;20278;-94
2021/10/01 09:57:05;;;;;;;3.10;2.80;;;11.60;99.90;;;;;;6283653;22;20193;-93
2021/10/01 09:59:38;;;;;;;3.00;2.70;;;11.50;99.90;;;;;;6285073;22;20657;-94
2021/10/01 10:02:12;;;;;;;3.30;2.90;;;11.40;99.90;;;;;;6284856;22;20620;-93
2021/10/01 10:05:01;;;;;;;2.53;2.33;;;11.30;99.90;;;;;;6284282;22;20190;-95
2021/10/01 10:07:41;;;;;;;5.60;2.80;;;11.30;99.90;;;;;;6284827;22;20230;-95
2021/10/01 10:10:13;;;;;;;4.93;2.97;;;11.20;99.90;;;;;;6285548;22;20167;-94
2021/10/01 10:12:45;;;;;;;2.60;2.40;;;11.10;99.90;;;;;;6284946;22;20175;-93
2021/10/01 10:15:19;;;;;;;3.83;2.67;;;11.10;99.90;;;;;;6303578;22;20171;-93
2021/10/01 10:17:52;;;;;;;5.07;2.60;;;11.10;99.90;;;;;;6305118;22;20178;-93
2021/10/01 10:20:26;;;;;;;2.83;2.53;;;11.10;99.90;;;;;;6296138;22;20183;-93
2021/10/01 10:22:58;;;;;;;3.30;2.23;;;11.20;99.90;;;;;;6288569;22;20210;-92
2021/10/01 10:25:34;;;;;;;4.07;2.20;;;11.20;99.90;;;;;;6259776;22;20604;-93
2021/10/01 10:28:07;;;;;;;2.77;2.57;;;11.20;99.90;;;;;;6285063;22;20217;-93
2021/10/01 10:30:38;;;;;;;3.27;2.40;;;11.30;99.90;;;;;;6284160;22;20209;-93
2021/10/01 10:33:40;;;;;;;2.53;2.33;;;11.30;99.90;;;;;;6285021;22;20186;-93
2021/10/01 10:36:36;;;;;;;2.73;2.20;;;11.40;99.90;;;;;;6281718;22;20182;-93
2021/10/01 10:39:45;;;;;;;2.37;2.17;;;11.40;99.90;;;;;;6284148;22;20163;-93
2021/10/01 10:42:20;;;;;;;4.03;2.30;;;11.40;99.90;;;;;;6259748;22;20171;-93
2021/10/01 10:44:56;;;;;;;2.87;2.30;;;11.30;99.90;;;;;;6284113;22;20167;-94
2021/10/01 10:48:02;;;;;;;2.37;2.17;;;11.30;99.90;;;;;;6281817;22;20218;-94
2021/10/01 10:50:52;;;;;;;2.50;2.30;;;11.30;99.90;;;;;;6285586;22;20190;-93
2021/10/01 10:53:29;;;;;;;2.13;1.87;;;11.40;99.90;;;;;;6286093;22;20171;-94
2021/10/01 10:56:08;;;;;;;3.30;1.97;;;11.30;99.90;;;;;;6283829;22;20621;-94
2021/10/01 10:58:42;;;;;;;3.60;2.30;;;11.40;99.90;;;;;;6283595;22;20202;-94
2021/10/01 11:01:39;;;;;;;3.20;2.60;;;11.40;99.90;;;;;;6283525;22;20175;-95
2021/10/01 11:04:27;;;;;;;4.20;2.60;;;11.40;99.90;;;;;;6286592;22;20225;-95
2021/10/01 11:06:59;;;;;;;3.80;3.50;;;11.50;99.90;;;;;;6284327;22;20206;-95
2021/10/01 11:09:35;;;;;;;4.57;3.70;;;11.50;99.90;;;;;;6284652;22;20164;-95
2021/10/01 11:12:26;;;;;;;4.20;3.30;;;11.60;99.90;;;;;;6283865;22;20173;-95
2021/10/01 11:15:18;;;;;;;4.73;3.13;;;11.60;99.90;;;;;;6282859;22;20175;-95
2021/10/01 11:18:26;;;;;;;6.33;3.70;;;11.60;99.90;;;;;;6281046;22;20206;-94
2021/10/01 11:20:58;;;;;;;3.33;3.03;;;11.60;99.90;;;;;;6190014;23;20181;-93
2021/10/01 11:23:30;;;;;;;3.70;3.40;;;11.60;99.90;;;;;;6196908;23;20213;-93
2021/10/01 11:26:04;;;;;;;3.73;3.37;;;11.60;99.90;;;;;;6246274;22;20167;-93
2021/10/01 11:28:35;;;;;;;4.60;3.77;;;11.60;99.90;;;;;;6302160;22;20248;-92
2021/10/01 11:31:07;;;;;;;3.90;3.30;;;11.60;99.90;;;;;;6303250;22;20162;-93
2021/10/01 11:33:39;;;;;;;4.70;3.83;;;11.50;99.90;;;;;;6303002;22;20186;-93
2021/10/01 11:36:10;;;;;;;5.37;3.60;;;11.50;99.90;;;;;;6300728;22;20171;-93
2021/10/01 11:38:42;;;;;;;4.57;3.97;;;11.50;99.90;;;;;;6303289;22;20163;-93
2021/10/01 11:41:18;;;;;;;4.50;4.00;;;11.60;99.90;;;;;;6303459;22;20194;-92
2021/10/01 11:43:51;;;;;;;4.17;3.77;;;11.50;99.90;;;;;;6287534;22;20209;-92
2021/10/01 11:46:36;;;;;;;5.13;4.03;;;11.50;99.90;;;;;;6289220;22;20163;-94
2021/10/01 11:49:15;;;;;;;6.50;3.90;;;11.60;99.90;;;;;;6286759;22;20205;-94
2021/10/01 11:52:03;;;;;;;4.40;4.00;;;11.60;99.90;;;;;;6288851;22;20240;-94
2021/10/01 11:54:35;;;;;;;4.40;3.87;;;11.60;99.90;;;;;;6283895;22;20171;-95
2021/10/01 11:57:13;;;;;;;22.63;4.77;;;11.60;99.90;;;;;;6286402;22;20171;-94
2021/10/01 11:59:54;;;;;;;21.50;5.13;;;11.60;99.90;;;;;;6285876;22;20686;-94
2021/10/01 12:02:34;;;;;;;40.23;4.73;;;11.50;99.90;;;;;;6288102;22;20162;-95
2021/10/01 12:05:27;;;;;;;7.47;3.87;;;11.50;99.90;;;;;;6287767;22;20178;-95
2021/10/01 12:08:00;;;;;;;4.17;3.73;;;11.50;99.90;;;;;;6287645;22;20202;-95
2021/10/01 12:10:33;;;;;;;3.67;3.20;;;11.50;99.90;;;;;;6288132;22;20323;-94
2021/10/01 12:13:28;;;;;;;6.97;3.13;;;11.50;99.90;;;;;;6286136;22;20179;-94
2021/10/01 12:16:02;;;;;;;5.63;2.60;;;11.50;99.90;;;;;;6286582;22;20166;-94
2021/10/01 12:18:37;;;;;;;4.00;3.00;;;11.50;99.90;;;;;;6285835;22;20239;-94
2021/10/01 12:21:11;;;;;;;3.93;2.60;;;11.50;99.90;;;;;;6283124;22;20197;-94
2021/10/01 12:23:46;;;;;;;3.97;3.00;;;11.40;99.90;;;;;;6290890;22;20501;-95
2021/10/01 12:26:26;;;;;;;3.60;2.40;;;11.40;99.90;;;;;;6290824;22;20182;-94
2021/10/01 12:29:17;;;;;;;3.77;2.50;;;11.30;99.90;;;;;;6286431;22;20536;-94
2021/10/01 12:31:50;;;;;;;4.30;2.50;;;11.30;99.90;;;;;;6283839;22;20175;-94
2021/10/01 12:34:27;;;;;;;3.93;2.33;;;11.20;99.90;;;;;;6283205;22;20177;-95
2021/10/01 12:37:02;;;;;;;2.20;2.10;;;11.10;99.90;;;;;;6283589;22;20179;-94
2021/10/01 12:39:36;;;;;;;5.20;2.37;;;11.10;99.90;;;;;;6282461;22;20178;-94
2021/10/01 12:42:09;;;;;;;3.13;2.30;;;10.90;99.90;;;;;;6286988;22;20171;-94
2021/10/01 12:44:45;;;;;;;3.97;2.30;;;10.80;99.90;;;;;;6286987;22;20524;-94
2021/10/01 12:47:18;;;;;;;4.03;2.37;;;10.80;99.90;;;;;;6287804;22;20185;-95
2021/10/01 12:49:59;;;;;;;7.57;2.80;;;10.70;99.90;;;;;;6287899;22;20230;-95
2021/10/01 12:52:31;;;;;;;2.80;2.43;;;10.50;99.90;;;;;;6287126;22;20215;-95
2021/10/01 12:55:04;;;;;;;3.97;2.10;;;10.40;99.90;;;;;;6287086;22;20171;-95
2021/10/01 12:57:39;;;;;;;3.57;2.70;;;10.50;99.90;;;;;;6291812;22;20156;-95
2021/10/01 13:00:32;;;;;;;4.70;2.60;;;10.40;99.90;;;;;;6302696;22;20166;-94
2021/10/01 13:03:07;;;;;;;3.37;2.80;;;10.30;99.90;;;;;;6300811;22;20205;-94
2021/10/01 13:05:40;;;;;;;2.90;2.60;;;10.30;99.90;;;;;;6302334;22;20178;-94
2021/10/01 13:08:17;;;;;;;6.53;2.43;;;10.20;99.90;;;;;;6303328;22;20199;-95
2021/10/01 13:10:59;;;;;;;3.47;2.60;;;10.10;99.90;;;;;;6303916;22;20163;-95
2021/10/01 13:13:33;;;;;;;4.80;2.80;;;10.10;99.90;;;;;;6302038;22;20175;-94
2021/10/01 13:16:11;;;;;;;5.77;2.80;;;10.10;99.90;;;;;;6299157;22;20223;-94
2021/10/01 13:18:43;;;;;;;4.63;3.03;;;10.00;99.90;;;;;;6303493;22;20151;-89
2021/10/01 13:21:17;;;;;;;3.13;2.47;;;10.00;99.90;;;;;;6303457;22;20186;-93
2021/10/01 13:23:49;;;;;;;3.80;2.53;;;10.00;99.90;;;;;;6301928;22;20238;-93
2021/10/01 13:26:22;;;;;;;4.10;2.77;;;9.90;99.90;;;;;;6285405;22;20213;-91
2021/10/01 13:28:59;;;;;;;4.77;2.73;;;9.80;99.90;;;;;;6281785;22;20203;-93
2021/10/01 13:31:42;;;;;;;7.43;2.67;;;9.80;99.90;;;;;;6283562;22;20178;-94
2021/10/01 13:34:16;;;;;;;3.27;2.60;;;9.80;99.90;;;;;;6281548;22;20182;-93
2021/10/01 13:36:48;;;;;;;4.97;2.40;;;9.70;99.90;;;;;;6282285;22;20565;-94
2021/10/01 13:39:19;;;;;;;6.73;2.80;;;9.70;99.90;;;;;;6282980;22;20723;-93
2021/10/01 13:41:52;;;;;;;30.37;3.20;;;9.70;99.90;;;;;;6281751;22;20167;-93
2021/10/01 13:44:24;;;;;;;30.93;3.47;;;9.70;99.90;;;;;;6283774;22;20502;-94
2021/10/01 13:46:58;;;;;;;213.63;9.57;;;9.80;99.90;;;;;;6284214;22;20182;-94
2021/10/01 13:49:29;;;;;;;240.27;8.57;;;9.80;99.90;;;;;;6285066;22;20187;-94
2021/10/01 13:52:02;;;;;;;238.63;8.67;;;9.90;99.90;;;;;;6285505;22;20175;-94
2021/10/01 13:54:33;;;;;;;409.73;13.63;;;10.00;99.90;;;;;;6282634;22;20610;-94
2021/10/01 13:57:04;;;;;;;267.60;10.37;;;10.00;99.90;;;;;;6284646;22;20177;-94
2021/10/01 13:59:36;;;;;;;193.80;7.73;;;10.00;99.90;;;;;;6284022;22;20178;-92
2021/10/01 14:02:10;;;;;;;266.07;9.40;;;10.00;99.90;;;;;;6282026;22;20559;-94
2021/10/01 14:04:42;;;;;;;210.73;8.50;;;10.00;99.90;;;;;;6284321;22;20170;-94
2021/10/01 14:07:14;;;;;;;160.03;6.33;;;10.00;99.90;;;;;;6284088;22;20171;-94
2021/10/01 14:09:45;;;;;;;144.90;6.23;;;10.00;99.90;;;;;;6283218;22;20225;-94
2021/10/01 14:12:30;;;;;;;122.80;5.70;;;10.00;99.90;;;;;;6287059;22;20802;-94
2021/10/01 14:15:02;;;;;;;177.93;5.90;;;10.00;99.90;;;;;;6285420;22;20187;-95
2021/10/01 14:17:35;;;;;;;192.33;7.23;;;10.10;99.90;;;;;;6284604;22;20171;-94
2021/10/01 14:20:09;;;;;;;210.60;8.73;;;10.10;99.90;;;;;;6291747;22;20216;-94
2021/10/01 14:22:42;;;;;;;76.30;4.77;;;10.20;99.90;;;;;;6297426;22;20687;-94
2021/10/01 14:25:31;;;;;;;105.70;5.30;;;10.20;99.90;;;;;;6272826;22;20171;-93
2021/10/01 14:28:02;;;;;;;123.63;5.33;;;10.20;99.90;;;;;;6298594;22;20213;-94
2021/10/01 14:30:38;;;;;;;40.60;3.70;;;10.30;99.90;;;;;;6295223;22;20248;-94
2021/10/01 14:33:12;;;;;;;179.63;7.17;;;10.30;99.90;;;;;;6294831;22;20179;-93
2021/10/01 14:35:46;;;;;;;177.43;7.83;;;10.20;99.90;;;;;;6294082;22;20213;-93
2021/10/01 14:38:18;;;;;;;190.80;7.90;;;10.20;99.90;;;;;;6295579;22;20163;-93
2021/10/01 14:40:52;;;;;;;172.40;6.77;;;10.10;99.90;;;;;;6244116;23;20172;-93
2021/10/01 14:43:39;;;;;;;97.20;4.50;;;10.20;99.90;;;;;;6242492;23;20164;-93
2021/10/01 14:46:11;;;;;;;139.77;5.67;;;10.20;99.90;;;;;;6238365;23;20196;-95
2021/10/01 14:48:50;;;;;;;103.83;5.17;;;10.10;99.90;;;;;;6234860;23;20173;-94
2021/10/01 14:51:24;;;;;;;104.47;4.07;;;10.10;99.90;;;;;;6239133;23;20187;-94
2021/10/01 14:54:00;;;;;;;42.07;2.37;;;10.10;99.90;;;;;;6238679;23;20175;-95
2021/10/01 14:56:33;;;;;;;29.83;2.50;;;10.00;99.90;;;;;;6240559;23;20168;-94
2021/10/01 14:59:05;;;;;;;11.70;2.20;;;10.00;99.90;;;;;;6242229;23;20171;-95
2021/10/01 15:01:37;;;;;;;4.73;2.10;;;9.90;99.90;;;;;;6233154;23;20172;-95
2021/10/01 15:04:13;;;;;;;5.10;2.40;;;10.00;99.90;;;;;;6238884;23;20336;-95
2021/10/01 15:06:45;;;;;;;5.10;2.33;;;10.00;99.90;;;;;;6234305;23;20163;-95
2021/10/01 15:09:18;;;;;;;9.07;2.87;;;10.00;99.90;;;;;;6237642;23;20219;-95
2021/10/01 15:11:57;;;;;;;63.47;4.33;;;10.10;99.90;;;;;;6239233;23;20176;-94
2021/10/01 15:14:28;;;;;;;34.87;3.70;;;10.20;99.90;;;;;;6238525;23;20187;-94
2021/10/01 15:17:02;;;;;;;149.93;6.47;;;10.20;99.90;;;;;;6240159;23;20156;-94
2021/10/01 15:19:40;;;;;;;60.00;3.30;;;10.20;99.90;;;;;;6238450;23;20180;-93
2021/10/01 15:27:55;;;;;;;81.90;3.97;;;10.40;99.90;;;;;;6237903;23;20164;-95
2021/10/01 15:30:28;;;;;;;31.43;3.37;;;10.40;99.90;;;;;;6226162;23;20207;-95
2021/10/01 15:33:06;;;;;;;47.33;3.33;;;10.40;99.90;;;;;;6230369;23;20192;-94
2021/10/01 15:35:40;;;;;;;49.57;3.00;;;10.50;99.90;;;;;;6228522;23;20500;-93
2021/10/01 15:38:20;;;;;;;21.77;2.43;;;10.50;99.90;;;;;;6241095;23;20156;-93
2021/10/01 15:40:54;;;;;;;20.57;2.77;;;10.50;99.90;;;;;;6236398;23;20176;-93
2021/10/01 15:43:26;;;;;;;6.67;2.30;;;10.50;99.90;;;;;;6236158;23;20207;-94
2021/10/01 15:45:57;;;;;;;6.40;2.10;;;10.50;99.90;;;;;;6223844;23;20187;-93
2021/10/01 15:48:29;;;;;;;13.43;2.70;;;10.60;99.90;;;;;;6242183;23;20157;-93
2021/10/01 15:53:48;;;;;;;2.80;2.47;;;10.60;99.90;;;;;;6223067;22;20228;-95
2021/10/01 15:56:19;;;;;;;3.43;2.40;;;10.60;99.90;;;;;;6228381;23;20179;-95
2021/10/01 15:58:51;;;;;;;2.97;2.53;;;10.70;99.90;;;;;;6226894;23;20192;-95
2021/10/01 16:01:23;;;;;;;2.53;2.00;;;10.70;99.90;;;;;;6222916;23;20179;-95